Hovedside
METAR-TAF:

METAR-TAF

Lufthavner :

Auckland internasjonale lufthavn

Auckland, New Zealand

breddegrad: 37-01S, lengdegrad: 174-48E, høyde over havet: 7 m

Gjeldene værobservasjon

Denne rapporten ble laget for 38 minutter siden, klokken 15:00 UTC
Vind 7 kt fra Sørvest
Temperatur 14°C
Luftfuktighet 88%
Trykk 1007 hPa
Sikt 10 km eller mer

METAR: NZAA 201500Z AUTO 23007KT 9999 BKN016/// OVC021/// 14/12 Q1007 TEMPO BKN014

Tid: 03:38 (15:38 UTC)

Varsel

Varsel gyldig fra 20. klokken 00 UTC til 21. klokken 00 UTC
Vind 10 kt fra Sørvest
Sikt 10 km eller mer
Spredte skyer i en høyde av 4000 ft
Blir
fra 20. klokken 10 UTC til 20. klokken 12 UTC
Vind 2 kt fra skiftende retning
Fra 20. klokken 2300 UTC
Vind 10 kt fra Vest
Sikt 10 km eller mer
Spredte skyer i en høyde av 2500 ft
lette regnbyger

TAF: NZAA 2000/2100 23010KT 9999 SCT040 BECMG 2010/2012 VRB02KT FM202300 26010KT 9999 -SHRA SCT025

Værobservasjoner og værvarsel for over 4000 flyplasser (METAR- og TAF-rapporter).

Tilgjengelige stasjoner er representert av de røde og gule prikkene på kartet.

Hold musepekeren over prikken for å se navnet på stasjonen.

Klikk så for å se værobservasjoner og -varsler.

For å forandre kartet kan du klikke på den grønne knappen med svart kryss for å zoome inn, på den grønne knappen med strek for å zoome ut, eller på de grønne pilene for å se tilstøtende kart.


METAR-TAF: